sensor_id;sensor_type;location;lat;lon;timestamp;pressure;altitude;pressure_sealevel;temperature;humidity
17254;BME280;32542;52.832;13.816;2022-10-04T00:02:26;101954.03;;;20.73;57.78
17254;BME280;32542;52.832;13.816;2022-10-04T00:05:32;101944.28;;;20.74;57.72
17254;BME280;32542;52.832;13.816;2022-10-04T00:08:39;101954.03;;;20.73;57.85
17254;BME280;32542;52.832;13.816;2022-10-04T00:11:45;101943.41;;;20.73;57.86
17254;BME280;32542;52.832;13.816;2022-10-04T00:14:50;101956.69;;;20.73;57.82
17254;BME280;32542;52.832;13.816;2022-10-04T00:18:06;101949.63;;;20.72;57.78
17254;BME280;32542;52.832;13.816;2022-10-04T00:21:10;101948.72;;;20.73;57.82
17254;BME280;32542;52.832;13.816;2022-10-04T00:24:19;101948.78;;;20.72;57.87
17254;BME280;32542;52.832;13.816;2022-10-04T00:27:25;101957.59;;;20.72;57.83
17254;BME280;32542;52.832;13.816;2022-10-04T00:30:35;101956.69;;;20.73;57.78
17254;BME280;32542;52.832;13.816;2022-10-04T00:33:39;101960.25;;;20.72;57.84
17254;BME280;32542;52.832;13.816;2022-10-04T00:36:54;101959.38;;;20.73;57.89
17254;BME280;32542;52.832;13.816;2022-10-04T00:40:00;101951.38;;;20.73;57.91
17254;BME280;32542;52.832;13.816;2022-10-04T00:43:06;101961.16;;;20.73;57.78
17254;BME280;32542;52.832;13.816;2022-10-04T00:46:13;101957.59;;;20.72;57.75
17254;BME280;32542;52.832;13.816;2022-10-04T00:49:21;101956.75;;;20.72;57.77
17254;BME280;32542;52.832;13.816;2022-10-04T00:52:29;101950.56;;;20.71;57.85
17254;BME280;32542;52.832;13.816;2022-10-04T00:55:36;101948.78;;;20.72;57.63
17254;BME280;32542;52.832;13.816;2022-10-04T00:58:48;101947.88;;;20.71;57.69
17254;BME280;32542;52.832;13.816;2022-10-04T01:01:55;101946.09;;;20.72;57.75
17254;BME280;32542;52.832;13.816;2022-10-04T01:05:03;101944.28;;;20.72;57.68
17254;BME280;32542;52.832;13.816;2022-10-04T01:08:12;101952.28;;;20.72;57.69
17254;BME280;32542;52.832;13.816;2022-10-04T01:11:18;101949.66;;;20.71;57.68
17254;BME280;32542;52.832;13.816;2022-10-04T01:14:29;101947.00;;;20.71;57.78
17254;BME280;32542;52.832;13.816;2022-10-04T01:17:37;101943.47;;;20.70;57.87
17254;BME280;32542;52.832;13.816;2022-10-04T01:20:49;101950.56;;;20.71;57.82
17254;BME280;32542;52.832;13.816;2022-10-04T01:24:16;101950.56;;;20.71;57.64
17254;BME280;32542;52.832;13.816;2022-10-04T01:27:34;101954.13;;;20.70;57.70
17254;BME280;32542;52.832;13.816;2022-10-04T01:30:38;101951.44;;;20.70;57.69
17254;BME280;32542;52.832;13.816;2022-10-04T01:33:41;101960.31;;;20.71;57.69
17254;BME280;32542;52.832;13.816;2022-10-04T01:36:44;101949.66;;;20.71;57.72
17254;BME280;32542;52.832;13.816;2022-10-04T01:39:50;101952.34;;;20.71;57.57
17254;BME280;32542;52.832;13.816;2022-10-04T01:42:56;101944.34;;;20.71;57.77
17254;BME280;32542;52.832;13.816;2022-10-04T01:46:06;101943.47;;;20.70;57.73
17254;BME280;32542;52.832;13.816;2022-10-04T01:49:16;101954.13;;;20.70;57.75
17254;BME280;32542;52.832;13.816;2022-10-04T01:52:23;101949.72;;;20.69;57.71
17254;BME280;32542;52.832;13.816;2022-10-04T01:55:33;101948.78;;;20.70;57.67
17254;BME280;32542;52.832;13.816;2022-10-04T01:58:40;101958.56;;;20.70;57.61
17254;BME280;32542;52.832;13.816;2022-10-04T02:01:51;101947.91;;;20.70;57.63
17254;BME280;32542;52.832;13.816;2022-10-04T02:04:56;101958.56;;;20.70;57.67
17254;BME280;32542;52.832;13.816;2022-10-04T02:08:03;101949.72;;;20.69;57.60
17254;BME280;32542;52.832;13.816;2022-10-04T02:11:09;101951.44;;;20.70;57.65
17254;BME280;32542;52.832;13.816;2022-10-04T02:14:14;101952.38;;;20.69;57.85
17254;BME280;32542;52.832;13.816;2022-10-04T02:17:21;101944.41;;;20.68;57.72
17254;BME280;32542;52.832;13.816;2022-10-04T02:20:25;101945.31;;;20.68;57.59
17254;BME280;32542;52.832;13.816;2022-10-04T02:23:28;101947.97;;;20.68;57.72
17254;BME280;32542;52.832;13.816;2022-10-04T02:26:33;101942.63;;;20.68;57.66
17254;BME280;32542;52.832;13.816;2022-10-04T02:29:36;101948.91;;;20.67;57.61
17254;BME280;32542;52.832;13.816;2022-10-04T02:32:41;101949.72;;;20.69;57.55
17254;BME280;32542;52.832;13.816;2022-10-04T02:35:59;101948.84;;;20.69;57.48
17254;BME280;32542;52.832;13.816;2022-10-04T02:39:07;101945.31;;;20.68;57.76
17254;BME280;32542;52.832;13.816;2022-10-04T02:42:16;101939.09;;;20.68;57.75
17254;BME280;32542;52.832;13.816;2022-10-04T02:45:26;101932.94;;;20.67;57.70
17254;BME280;32542;52.832;13.816;2022-10-04T02:48:36;101940.91;;;20.67;57.77
17254;BME280;32542;52.832;13.816;2022-10-04T02:51:44;101938.25;;;20.67;57.66
17254;BME280;32542;52.832;13.816;2022-10-04T02:54:55;101932.94;;;20.67;57.58
17254;BME280;32542;52.832;13.816;2022-10-04T02:58:08;101933.78;;;20.68;57.47
17254;BME280;32542;52.832;13.816;2022-10-04T03:01:22;101933.78;;;20.68;57.61
17254;BME280;32542;52.832;13.816;2022-10-04T03:04:27;101936.44;;;20.68;57.55
17254;BME280;32542;52.832;13.816;2022-10-04T03:07:31;101938.25;;;20.67;57.61
17254;BME280;32542;52.832;13.816;2022-10-04T03:10:35;101938.25;;;20.67;57.68
17254;BME280;32542;52.832;13.816;2022-10-04T03:13:43;101945.34;;;20.67;57.61
17254;BME280;32542;52.832;13.816;2022-10-04T03:16:49;101947.13;;;20.66;57.51
17254;BME280;32542;52.832;13.816;2022-10-04T03:19:55;101941.81;;;20.66;57.51
17254;BME280;32542;52.832;13.816;2022-10-04T03:22:58;101943.56;;;20.67;57.53
17254;BME280;32542;52.832;13.816;2022-10-04T03:26:12;101944.47;;;20.66;57.46
17254;BME280;32542;52.832;13.816;2022-10-04T03:29:23;101943.56;;;20.67;57.52
17254;BME280;32542;52.832;13.816;2022-10-04T03:32:27;101947.13;;;20.66;57.67
17254;BME280;32542;52.832;13.816;2022-10-04T03:35:33;101940.09;;;20.65;57.63
17254;BME280;32542;52.832;13.816;2022-10-04T03:38:37;101934.75;;;20.65;57.71
17254;BME280;32542;52.832;13.816;2022-10-04T03:41:41;101933.81;;;20.66;57.64
17254;BME280;32542;52.832;13.816;2022-10-04T03:44:49;101940.09;;;20.65;57.56
17254;BME280;32542;52.832;13.816;2022-10-04T03:47:57;101935.59;;;20.66;57.45
17254;BME280;32542;52.832;13.816;2022-10-04T03:51:06;101940.09;;;20.65;57.45
17254;BME280;32542;52.832;13.816;2022-10-04T03:54:17;101940.94;;;20.66;57.58
17254;BME280;32542;52.832;13.816;2022-10-04T03:57:23;101945.41;;;20.65;57.54
17254;BME280;32542;52.832;13.816;2022-10-04T04:00:28;101945.41;;;20.65;57.61
17254;BME280;32542;52.832;13.816;2022-10-04T04:03:37;101946.25;;;20.66;57.67
17254;BME280;32542;52.832;13.816;2022-10-04T04:07:00;101942.75;;;20.65;57.69
17254;BME280;32542;52.832;13.816;2022-10-04T04:10:11;101942.75;;;20.65;57.62
17254;BME280;32542;52.832;13.816;2022-10-04T04:13:23;101948.06;;;20.65;57.67
17254;BME280;32542;52.832;13.816;2022-10-04T04:16:30;101950.72;;;20.65;57.49
17254;BME280;32542;52.832;13.816;2022-10-04T04:19:33;101943.66;;;20.64;57.43
17254;BME280;32542;52.832;13.816;2022-10-04T04:22:37;101950.75;;;20.64;57.47
17254;BME280;32542;52.832;13.816;2022-10-04T04:25:45;101956.97;;;20.64;57.52
17254;BME280;32542;52.832;13.816;2022-10-04T04:28:50;101958.72;;;20.65;57.62
17254;BME280;32542;52.832;13.816;2022-10-04T04:31:57;101955.19;;;20.65;57.61
17254;BME280;32542;52.832;13.816;2022-10-04T04:35:04;101955.22;;;20.63;57.54
17254;BME280;32542;52.832;13.816;2022-10-04T04:38:18;101964.06;;;20.64;57.54
17254;BME280;32542;52.832;13.816;2022-10-04T04:41:23;101963.22;;;20.63;57.62
17254;BME280;32542;52.832;13.816;2022-10-04T04:44:27;101963.22;;;20.63;57.46
17254;BME280;32542;52.832;13.816;2022-10-04T04:47:34;101970.25;;;20.64;57.49
17254;BME280;32542;52.832;13.816;2022-10-04T04:50:41;101971.16;;;20.65;57.51
17254;BME280;32542;52.832;13.816;2022-10-04T04:53:50;101968.53;;;20.63;57.62
17254;BME280;32542;52.832;13.816;2022-10-04T04:56:55;101972.03;;;20.64;57.29
17254;BME280;32542;52.832;13.816;2022-10-04T05:00:00;101973.84;;;20.63;57.53
17254;BME280;32542;52.832;13.816;2022-10-04T05:03:06;101976.53;;;20.63;57.45
17254;BME280;32542;52.832;13.816;2022-10-04T05:06:23;101973.84;;;20.63;57.61
17254;BME280;32542;52.832;13.816;2022-10-04T05:09:31;101981.84;;;20.63;57.53
17254;BME280;32542;52.832;13.816;2022-10-04T05:12:35;101987.16;;;20.63;57.50
17254;BME280;32542;52.832;13.816;2022-10-04T05:15:39;101982.75;;;20.62;57.38
17254;BME280;32542;52.832;13.816;2022-10-04T05:18:44;101983.63;;;20.63;57.39
17254;BME280;32542;52.832;13.816;2022-10-04T05:21:49;101979.19;;;20.63;57.47
17254;BME280;32542;52.832;13.816;2022-10-04T05:24:56;101982.69;;;20.64;57.47
17254;BME280;32542;52.832;13.816;2022-10-04T05:28:01;101989.81;;;20.63;57.46
17254;BME280;32542;52.832;13.816;2022-10-04T05:31:27;101979.19;;;20.63;57.49
17254;BME280;32542;52.832;13.816;2022-10-04T05:34:38;101977.41;;;20.62;57.53
17254;BME280;32542;52.832;13.816;2022-10-04T05:37:51;101979.19;;;20.63;57.48
17254;BME280;32542;52.832;13.816;2022-10-04T05:41:01;101989.81;;;20.63;57.34
17254;BME280;32542;52.832;13.816;2022-10-04T05:44:23;101991.59;;;20.63;57.55
17254;BME280;32542;52.832;13.816;2022-10-04T05:47:29;101987.19;;;20.62;57.34
17254;BME280;32542;52.832;13.816;2022-10-04T05:50:36;101995.16;;;20.63;57.44
17254;BME280;32542;52.832;13.816;2022-10-04T05:53:41;101996.00;;;20.64;57.48
17254;BME280;32542;52.832;13.816;2022-10-04T05:56:58;102001.31;;;20.64;57.34
17254;BME280;32542;52.832;13.816;2022-10-04T06:00:12;102011.13;;;20.63;57.46
17254;BME280;32542;52.832;13.816;2022-10-04T06:03:25;102016.44;;;20.63;57.33
17254;BME280;32542;52.832;13.816;2022-10-04T06:06:39;102027.09;;;20.63;57.51
17254;BME280;32542;52.832;13.816;2022-10-04T06:09:58;102023.53;;;20.63;57.78
17254;BME280;32542;52.832;13.816;2022-10-04T06:13:11;102032.41;;;20.63;57.85
17254;BME280;32542;52.832;13.816;2022-10-04T06:16:25;102030.59;;;20.64;57.94
17254;BME280;32542;52.832;13.816;2022-10-04T06:19:50;102023.50;;;20.64;57.71
17254;BME280;32542;52.832;13.816;2022-10-04T06:23:01;102027.94;;;20.64;57.61
17254;BME280;32542;52.832;13.816;2022-10-04T06:26:11;102023.50;;;20.64;57.65
17254;BME280;32542;52.832;13.816;2022-10-04T06:29:18;102025.25;;;20.65;57.79
17254;BME280;32542;52.832;13.816;2022-10-04T06:36:22;102021.66;;;20.66;57.36
17254;BME280;32542;52.832;13.816;2022-10-04T06:40:07;102023.44;;;20.67;57.56
17254;BME280;32542;52.832;13.816;2022-10-04T06:43:34;102034.06;;;20.67;57.61
17254;BME280;32542;52.832;13.816;2022-10-04T06:46:44;102034.91;;;20.68;57.44
17254;BME280;32542;52.832;13.816;2022-10-04T06:49:53;102041.13;;;20.68;57.36
17254;BME280;32542;52.832;13.816;2022-10-04T06:53:13;102051.72;;;20.70;57.58
17254;BME280;32542;52.832;13.816;2022-10-04T06:56:42;102048.16;;;20.71;57.57
17254;BME280;32542;52.832;13.816;2022-10-04T07:00:00;102049.00;;;20.73;57.44
17254;BME280;32542;52.832;13.816;2022-10-04T07:03:10;102052.53;;;20.73;57.68
17254;BME280;32542;52.832;13.816;2022-10-04T07:06:19;102052.53;;;20.73;57.59
17254;BME280;32542;52.832;13.816;2022-10-04T07:09:26;102049.88;;;20.73;57.42
17254;BME280;32542;52.832;13.816;2022-10-04T07:12:32;102052.47;;;20.75;57.52
17254;BME280;32542;52.832;13.816;2022-10-04T07:15:43;102063.13;;;20.75;57.54
17254;BME280;32542;52.832;13.816;2022-10-04T07:18:54;102056.03;;;20.75;57.56
17254;BME280;32542;52.832;13.816;2022-10-04T07:22:08;102053.38;;;20.75;57.54
17254;BME280;32542;52.832;13.816;2022-10-04T07:25:20;102048.91;;;20.76;57.61
17254;BME280;32542;52.832;13.816;2022-10-04T07:28:28;102053.25;;;20.78;57.68
17254;BME280;32542;52.832;13.816;2022-10-04T07:31:52;102050.59;;;20.78;57.70
17254;BME280;32542;52.832;13.816;2022-10-04T07:35:14;102044.38;;;20.79;57.72
17254;BME280;32542;52.832;13.816;2022-10-04T07:38:25;102050.53;;;20.81;57.70
17254;BME280;32542;52.832;13.816;2022-10-04T07:41:31;102047.81;;;20.83;57.78
17254;BME280;32542;52.832;13.816;2022-10-04T07:44:39;102050.47;;;20.83;57.71
17254;BME280;32542;52.832;13.816;2022-10-04T07:47:43;102060.28;;;20.82;57.86
17254;BME280;32542;52.832;13.816;2022-10-04T07:50:51;102065.59;;;20.82;57.86
17254;BME280;32542;52.832;13.816;2022-10-04T07:54:02;102067.34;;;20.83;57.84
17254;BME280;32542;52.832;13.816;2022-10-04T07:57:11;102074.41;;;20.84;57.90
17254;BME280;32542;52.832;13.816;2022-10-04T08:00:20;102071.75;;;20.84;57.87
17254;BME280;32542;52.832;13.816;2022-10-04T08:03:43;102088.56;;;20.86;57.99
17254;BME280;32542;52.832;13.816;2022-10-04T08:06:56;102086.75;;;20.87;57.93
17254;BME280;32542;52.832;13.816;2022-10-04T08:10:02;102087.63;;;20.87;58.16
17254;BME280;32542;52.832;13.816;2022-10-04T08:13:17;102092.06;;;20.88;57.99
17254;BME280;32542;52.832;13.816;2022-10-04T08:16:34;102101.78;;;20.89;57.88
17254;BME280;32542;52.832;13.816;2022-10-04T08:19:50;102104.44;;;20.89;58.07
17254;BME280;32542;52.832;13.816;2022-10-04T08:23:03;102104.50;;;20.88;57.98
17254;BME280;32542;52.832;13.816;2022-10-04T08:26:33;102106.22;;;20.89;58.02
17254;BME280;32542;52.832;13.816;2022-10-04T08:29:54;102105.38;;;20.88;57.96
17254;BME280;32542;52.832;13.816;2022-10-04T08:33:08;102108.03;;;20.88;58.02
17254;BME280;32542;52.832;13.816;2022-10-04T08:36:21;102106.28;;;20.87;58.04
17254;BME280;32542;52.832;13.816;2022-10-04T08:39:38;102109.75;;;20.89;58.03
17254;BME280;32542;52.832;13.816;2022-10-04T08:43:13;102109.75;;;20.89;58.12
17254;BME280;32542;52.832;13.816;2022-10-04T08:46:53;102119.47;;;20.92;58.63
17254;BME280;32542;52.832;13.816;2022-10-04T08:54:24;102124.75;;;20.93;59.49
17254;BME280;32542;52.832;13.816;2022-10-04T08:57:53;102130.94;;;20.94;59.42
17254;BME280;32542;52.832;13.816;2022-10-04T09:01:30;102126.50;;;20.94;59.44
17254;BME280;32542;52.832;13.816;2022-10-04T09:05:12;102127.38;;;20.95;59.46
17254;BME280;32542;52.832;13.816;2022-10-04T09:12:27;102133.56;;;20.95;59.40
17254;BME280;32542;52.832;13.816;2022-10-04T09:15:59;102130.91;;;20.95;59.32
17254;BME280;32542;52.832;13.816;2022-10-04T09:19:32;102138.00;;;20.96;59.14
17254;BME280;32542;52.832;13.816;2022-10-04T09:22:46;102132.66;;;20.96;58.86
17254;BME280;32542;52.832;13.816;2022-10-04T09:26:04;102132.66;;;20.96;59.13
17254;BME280;32542;52.832;13.816;2022-10-04T09:36:32;102129.16;;;20.94;58.52
17254;BME280;32542;52.832;13.816;2022-10-04T09:43:34;102126.69;;;20.88;58.03
17254;BME280;32542;52.832;13.816;2022-10-04T09:46:54;102126.69;;;20.88;57.92
17254;BME280;32542;52.832;13.816;2022-10-04T09:54:12;102121.31;;;20.90;57.99
17254;BME280;32542;52.832;13.816;2022-10-04T09:57:22;102117.69;;;20.92;58.27
17254;BME280;32542;52.832;13.816;2022-10-04T10:00:30;102122.09;;;20.93;58.43
17254;BME280;32542;52.832;13.816;2022-10-04T10:03:54;102114.06;;;20.95;58.42
17254;BME280;32542;52.832;13.816;2022-10-04T10:07:12;102119.34;;;20.96;58.62
17254;BME280;32542;52.832;13.816;2022-10-04T10:10:25;102119.28;;;20.98;58.54
17254;BME280;32542;52.832;13.816;2022-10-04T10:14:20;102115.75;;;20.97;58.53
17254;BME280;32542;52.832;13.816;2022-10-04T10:17:33;102120.19;;;20.98;58.71
17254;BME280;32542;52.832;13.816;2022-10-04T10:21:01;102114.84;;;20.98;58.56
17254;BME280;32542;52.832;13.816;2022-10-04T10:24:31;102117.50;;;20.98;58.48
17254;BME280;32542;52.832;13.816;2022-10-04T10:31:19;102113.97;;;20.98;58.39
17254;BME280;32542;52.832;13.816;2022-10-04T10:38:41;102112.19;;;20.98;58.40
17254;BME280;32542;52.832;13.816;2022-10-04T10:42:03;102112.13;;;21.00;58.38
17254;BME280;32542;52.832;13.816;2022-10-04T10:45:18;102111.25;;;21.01;58.24
17254;BME280;32542;52.832;13.816;2022-10-04T10:48:34;102106.81;;;21.00;58.38
17254;BME280;32542;52.832;13.816;2022-10-04T10:52:03;102106.81;;;21.00;58.32
17254;BME280;32542;52.832;13.816;2022-10-04T10:55:47;102114.84;;;20.98;58.36
17254;BME280;32542;52.832;13.816;2022-10-04T11:02:57;102114.03;;;20.96;58.36
17254;BME280;32542;52.832;13.816;2022-10-04T11:06:31;102114.91;;;20.95;58.22
17254;BME280;32542;52.832;13.816;2022-10-04T11:13:55;102114.91;;;20.95;58.22
17254;BME280;32542;52.832;13.816;2022-10-04T11:17:17;102108.75;;;20.95;58.01
17254;BME280;32542;52.832;13.816;2022-10-04T11:21:00;102109.66;;;20.94;58.16
17254;BME280;32542;52.832;13.816;2022-10-04T11:24:31;102110.53;;;20.94;58.02
17254;BME280;32542;52.832;13.816;2022-10-04T11:27:46;102103.44;;;20.93;58.00
17254;BME280;32542;52.832;13.816;2022-10-04T11:38:28;102098.16;;;20.92;57.93
17254;BME280;32542;52.832;13.816;2022-10-04T11:41:46;102092.84;;;20.92;57.95
17254;BME280;32542;52.832;13.816;2022-10-04T11:45:12;102091.06;;;20.91;57.95
17254;BME280;32542;52.832;13.816;2022-10-04T11:48:29;102085.75;;;20.91;57.98
17254;BME280;32542;52.832;13.816;2022-10-04T11:52:17;102079.56;;;20.90;57.91
17254;BME280;32542;52.832;13.816;2022-10-04T11:55:49;102077.81;;;20.89;57.89
17254;BME280;32542;52.832;13.816;2022-10-04T11:59:23;102074.28;;;20.89;57.87
17254;BME280;32542;52.832;13.816;2022-10-04T12:02:49;102077.81;;;20.89;57.80
17254;BME280;32542;52.832;13.816;2022-10-04T12:06:07;102074.25;;;20.90;57.87
17254;BME280;32542;52.832;13.816;2022-10-04T12:09:24;102069.81;;;20.89;57.84
17254;BME280;32542;52.832;13.816;2022-10-04T12:12:57;102069.81;;;20.89;57.62
17254;BME280;32542;52.832;13.816;2022-10-04T12:16:39;102069.81;;;20.89;57.82
17254;BME280;32542;52.832;13.816;2022-10-04T12:20:18;102065.44;;;20.88;57.90
17254;BME280;32542;52.832;13.816;2022-10-04T12:23:48;102068.09;;;20.88;57.64
17254;BME280;32542;52.832;13.816;2022-10-04T12:27:15;102065.44;;;20.88;57.59
17254;BME280;32542;52.832;13.816;2022-10-04T12:30:37;102069.00;;;20.87;57.75
17254;BME280;32542;52.832;13.816;2022-10-04T12:33:51;102074.31;;;20.87;57.68
17254;BME280;32542;52.832;13.816;2022-10-04T12:37:12;102068.13;;;20.87;57.70
17254;BME280;32542;52.832;13.816;2022-10-04T12:40:29;102066.34;;;20.87;57.74
17254;BME280;32542;52.832;13.816;2022-10-04T12:43:40;102066.34;;;20.87;57.66
17254;BME280;32542;52.832;13.816;2022-10-04T12:46:54;102069.00;;;20.87;57.54
17254;BME280;32542;52.832;13.816;2022-10-04T12:50:09;102072.53;;;20.88;57.55
17254;BME280;32542;52.832;13.816;2022-10-04T12:53:23;102078.75;;;20.88;57.64
17254;BME280;32542;52.832;13.816;2022-10-04T12:56:43;102073.44;;;20.87;57.59
17254;BME280;32542;52.832;13.816;2022-10-04T12:59:55;102073.41;;;20.88;57.58
17254;BME280;32542;52.832;13.816;2022-10-04T13:03:17;102070.78;;;20.87;57.54
17254;BME280;32542;52.832;13.816;2022-10-04T13:06:30;102074.31;;;20.87;57.55
17254;BME280;32542;52.832;13.816;2022-10-04T13:09:50;102071.59;;;20.89;58.69
17254;BME280;32542;52.832;13.816;2022-10-04T13:13:32;102065.31;;;20.91;59.89
17254;BME280;32542;52.832;13.816;2022-10-04T13:16:50;102069.69;;;20.94;59.48
17254;BME280;32542;52.832;13.816;2022-10-04T13:20:26;102065.25;;;20.94;58.90
17254;BME280;32542;52.832;13.816;2022-10-04T13:23:43;102063.50;;;20.93;58.90
17254;BME280;32542;52.832;13.816;2022-10-04T13:26:53;102056.44;;;20.92;58.74
17254;BME280;32542;52.832;13.816;2022-10-04T13:30:05;102046.66;;;20.93;58.67
17254;BME280;32542;52.832;13.816;2022-10-04T13:33:18;102050.19;;;20.93;58.60
17254;BME280;32542;52.832;13.816;2022-10-04T13:36:32;102047.50;;;20.93;58.52
17254;BME280;32542;52.832;13.816;2022-10-04T13:44:00;102030.72;;;20.91;58.30
17254;BME280;32542;52.832;13.816;2022-10-04T13:47:22;102028.06;;;20.91;58.35
17254;BME280;32542;52.832;13.816;2022-10-04T13:50:43;102022.72;;;20.91;58.31
17254;BME280;32542;52.832;13.816;2022-10-04T13:53:55;102021.91;;;20.89;58.20
17254;BME280;32542;52.832;13.816;2022-10-04T13:57:21;102021.00;;;20.90;58.22
17254;BME280;32542;52.832;13.816;2022-10-04T14:00:41;102014.78;;;20.90;58.17
17254;BME280;32542;52.832;13.816;2022-10-04T14:03:59;102009.47;;;20.90;58.04
17254;BME280;32542;52.832;13.816;2022-10-04T14:14:37;102009.50;;;20.88;57.79
17254;BME280;32542;52.832;13.816;2022-10-04T14:18:14;102005.91;;;20.89;57.63
17254;BME280;32542;52.832;13.816;2022-10-04T14:25:41;102005.09;;;20.87;57.39
17254;BME280;32542;52.832;13.816;2022-10-04T14:40:13;101999.88;;;20.84;57.34
17254;BME280;32542;52.832;13.816;2022-10-04T14:47:12;102000.78;;;20.83;57.19
17254;BME280;32542;52.832;13.816;2022-10-04T14:50:23;102004.31;;;20.84;57.39
17254;BME280;32542;52.832;13.816;2022-10-04T14:53:33;101986.56;;;20.84;57.86
17254;BME280;32542;52.832;13.816;2022-10-04T14:56:55;101986.50;;;20.86;58.03
17254;BME280;32542;52.832;13.816;2022-10-04T15:00:07;101982.88;;;20.88;58.27
17254;BME280;32542;52.832;13.816;2022-10-04T15:03:28;101982.84;;;20.90;58.67
17254;BME280;32542;52.832;13.816;2022-10-04T15:06:37;101983.72;;;20.90;58.57
17254;BME280;32542;52.832;13.816;2022-10-04T15:09:54;101973.91;;;20.91;58.33
17254;BME280;32542;52.832;13.816;2022-10-04T15:13:08;101974.84;;;20.90;57.99
17254;BME280;32542;52.832;13.816;2022-10-04T15:16:32;101970.44;;;20.89;57.98
17254;BME280;32542;52.832;13.816;2022-10-04T15:20:01;101964.25;;;20.88;58.01
17254;BME280;32542;52.832;13.816;2022-10-04T15:23:09;101962.50;;;20.87;57.93
17254;BME280;32542;52.832;13.816;2022-10-04T15:26:48;101967.88;;;20.86;57.73
17254;BME280;32542;52.832;13.816;2022-10-04T15:30:00;101965.22;;;20.86;57.65
17254;BME280;32542;52.832;13.816;2022-10-04T15:33:15;101967.91;;;20.84;57.53
17254;BME280;32542;52.832;13.816;2022-10-04T15:36:47;101965.25;;;20.84;57.44
17254;BME280;32542;52.832;13.816;2022-10-04T15:40:30;101970.59;;;20.84;57.47
17254;BME280;32542;52.832;13.816;2022-10-04T15:43:40;101977.63;;;20.85;57.43
17254;BME280;32542;52.832;13.816;2022-10-04T15:46:46;101978.56;;;20.84;57.36
17254;BME280;32542;52.832;13.816;2022-10-04T15:49:58;101980.31;;;20.85;57.39
17254;BME280;32542;52.832;13.816;2022-10-04T15:53:16;101965.28;;;20.83;57.32
17254;BME280;32542;52.832;13.816;2022-10-04T15:56:35;101982.13;;;20.83;57.29
17254;BME280;32542;52.832;13.816;2022-10-04T15:59:47;101972.41;;;20.82;57.40
17254;BME280;32542;52.832;13.816;2022-10-04T16:03:03;101968.91;;;20.80;57.36
17254;BME280;32542;52.832;13.816;2022-10-04T16:06:21;101968.00;;;20.81;57.31
17254;BME280;32542;52.832;13.816;2022-10-04T16:09:35;101968.91;;;20.80;57.60
17254;BME280;32542;52.832;13.816;2022-10-04T16:13:00;101958.25;;;20.80;57.45
17254;BME280;32542;52.832;13.816;2022-10-04T16:16:44;101955.59;;;20.80;57.51
17254;BME280;32542;52.832;13.816;2022-10-04T16:23:25;101953.78;;;20.82;57.55
17254;BME280;32542;52.832;13.816;2022-10-04T16:30:16;101954.69;;;20.81;57.43
17254;BME280;32542;52.832;13.816;2022-10-04T16:33:31;101953.78;;;20.82;57.43
17254;BME280;32542;52.832;13.816;2022-10-04T16:36:45;101956.44;;;20.82;57.63
17254;BME280;32542;52.832;13.816;2022-10-04T16:39:53;101952.94;;;20.80;57.45
17254;BME280;32542;52.832;13.816;2022-10-04T16:43:04;101955.56;;;20.82;57.44
17254;BME280;32542;52.832;13.816;2022-10-04T16:46:16;101957.41;;;20.80;57.44
17254;BME280;32542;52.832;13.816;2022-10-04T16:49:27;101954.75;;;20.80;57.47
17254;BME280;32542;52.832;13.816;2022-10-04T16:52:46;101960.09;;;20.78;57.53
17254;BME280;32542;52.832;13.816;2022-10-04T16:55:53;101962.75;;;20.78;57.50
17254;BME280;32542;52.832;13.816;2022-10-04T16:58:58;101968.06;;;20.78;57.63
17254;BME280;32542;52.832;13.816;2022-10-04T17:05:48;101971.63;;;20.79;57.53
17254;BME280;32542;52.832;13.816;2022-10-04T17:09:10;101976.06;;;20.78;57.58
17254;BME280;32542;52.832;13.816;2022-10-04T17:12:18;101976.06;;;20.78;57.38
17254;BME280;32542;52.832;13.816;2022-10-04T17:15:47;101974.28;;;20.79;57.38
17254;BME280;32542;52.832;13.816;2022-10-04T17:19:12;101974.28;;;20.79;57.74
17254;BME280;32542;52.832;13.816;2022-10-04T17:22:25;101976.06;;;20.78;57.72
17254;BME280;32542;52.832;13.816;2022-10-04T17:25:37;101984.03;;;20.78;57.73
17254;BME280;32542;52.832;13.816;2022-10-04T17:28:46;101978.72;;;20.78;57.56
17254;BME280;32542;52.832;13.816;2022-10-04T17:31:56;101977.00;;;20.77;57.45
17254;BME280;32542;52.832;13.816;2022-10-04T17:35:19;101980.56;;;20.76;57.68
17254;BME280;32542;52.832;13.816;2022-10-04T17:38:29;101986.72;;;20.78;58.57
17254;BME280;32542;52.832;13.816;2022-10-04T17:41:47;101995.63;;;20.77;58.34
17254;BME280;32542;52.832;13.816;2022-10-04T17:45:15;101992.03;;;20.78;57.93
17254;BME280;32542;52.832;13.816;2022-10-04T17:48:22;101992.03;;;20.78;57.91
17254;BME280;32542;52.832;13.816;2022-10-04T17:51:47;101983.16;;;20.79;57.80
17254;BME280;32542;52.832;13.816;2022-10-04T17:55:14;101958.31;;;20.79;57.56
17254;BME280;32542;52.832;13.816;2022-10-04T17:58:21;101946.78;;;20.78;57.59
17254;BME280;32542;52.832;13.816;2022-10-04T18:01:29;101964.50;;;20.79;57.68
17254;BME280;32542;52.832;13.816;2022-10-04T18:04:37;101968.06;;;20.80;57.51
17254;BME280;32542;52.832;13.816;2022-10-04T18:07:52;101964.50;;;20.79;57.68
17254;BME280;32542;52.832;13.816;2022-10-04T18:11:00;101958.31;;;20.79;57.56
17254;BME280;32542;52.832;13.816;2022-10-04T18:14:09;101955.63;;;20.79;57.62
17254;BME280;32542;52.832;13.816;2022-10-04T18:17:24;101949.44;;;20.78;57.52